Naarden, Netherlands
Current Conditions -  °F | °C
As of 9:25 PM on Thursday 23 Oct 2014 (Local Time) from EHAM Reporting Station
Drizzle Drizzle  
Wind Chill: 55°   Ceiling: 2200
Heat Index: 55°   Visibility: 6mi
Dew Point: 52°   Wind: 15mph
Humidity: 88%   Direction: 210°SSW
Pressure: 30.12"   Gusts: NA
Location:  52.3°N, 5.16°E
Report Text: EHAM 231925Z 21013KT 170V230 9999 -DZ FEW011 SCT014 BKN02213/11 Q1020 TEMPO 7000
Loading
Personal Weather Stations






























Interactive Weather Map
Tropical Storm Tracking
New forecast layout! Learn more

10-Day Weather Forecast

Advertisements
Track Severe Weather on mobile